Rosiclare, Illinois
Current Conditions -  °F | °C
As of 10:35 AM on Wednesday 22 Oct 2014 (Local Time) from K5M9 Reporting Station
Clear Clear  
Wind Chill: 53°   Ceiling: Unl
Heat Index: 53°   Visibility: 10mi
Dew Point: 42°   Wind: 6mph
Humidity: 69%   Direction: 60°ENE
Pressure: 30.31"   Gusts: NA
Location:  37.42°N, 88.35°W
Report Text: K5M9 221535Z AUTO 06005KT 10SM CLR 11/06 A3031 RMK AO2 T01140058
Loading
Personal Weather Stations






























Interactive Weather Map
Tropical Storm Tracking
New forecast layout! Learn more

10-Day Weather Forecast

Advertisements
Track Severe Weather on mobile